sensor_id;sensor_type;location;lat;lon;timestamp;P1;durP1;ratioP1;P2;durP2;ratioP2
19043;SDS011;9654;52.302;8.120;2022-11-20T00:01:07;33.63;;;15.50;;
19043;SDS011;9654;52.302;8.120;2022-11-20T00:03:36;39.23;;;17.83;;
19043;SDS011;9654;52.302;8.120;2022-11-20T00:06:04;45.37;;;19.50;;
19043;SDS011;9654;52.302;8.120;2022-11-20T00:08:32;36.37;;;17.63;;
19043;SDS011;9654;52.302;8.120;2022-11-20T00:11:03;38.30;;;17.10;;
19043;SDS011;9654;52.302;8.120;2022-11-20T00:13:30;34.20;;;16.17;;
19043;SDS011;9654;52.302;8.120;2022-11-20T00:15:57;40.53;;;17.27;;
19043;SDS011;9654;52.302;8.120;2022-11-20T00:18:24;31.20;;;14.87;;
19043;SDS011;9654;52.302;8.120;2022-11-20T00:20:51;31.77;;;14.23;;
19043;SDS011;9654;52.302;8.120;2022-11-20T00:23:18;36.73;;;15.57;;
19043;SDS011;9654;52.302;8.120;2022-11-20T00:25:45;35.17;;;14.90;;
19043;SDS011;9654;52.302;8.120;2022-11-20T00:28:13;33.63;;;16.40;;
19043;SDS011;9654;52.302;8.120;2022-11-20T00:30:40;30.07;;;13.87;;
19043;SDS011;9654;52.302;8.120;2022-11-20T00:33:06;31.83;;;15.00;;
19043;SDS011;9654;52.302;8.120;2022-11-20T00:35:33;31.93;;;14.93;;
19043;SDS011;9654;52.302;8.120;2022-11-20T00:38:00;33.43;;;15.03;;
19043;SDS011;9654;52.302;8.120;2022-11-20T00:40:27;31.73;;;14.87;;
19043;SDS011;9654;52.302;8.120;2022-11-20T00:42:53;39.57;;;14.67;;
19043;SDS011;9654;52.302;8.120;2022-11-20T00:45:22;32.03;;;14.30;;
19043;SDS011;9654;52.302;8.120;2022-11-20T00:47:48;32.80;;;14.83;;
19043;SDS011;9654;52.302;8.120;2022-11-20T00:50:15;30.33;;;13.77;;
19043;SDS011;9654;52.302;8.120;2022-11-20T00:52:42;29.90;;;14.43;;
19043;SDS011;9654;52.302;8.120;2022-11-20T00:55:09;27.60;;;13.73;;
19043;SDS011;9654;52.302;8.120;2022-11-20T00:57:35;28.73;;;14.07;;
19043;SDS011;9654;52.302;8.120;2022-11-20T01:00:02;33.27;;;14.27;;
19043;SDS011;9654;52.302;8.120;2022-11-20T01:02:31;29.10;;;14.27;;
19043;SDS011;9654;52.302;8.120;2022-11-20T01:04:58;28.67;;;13.47;;
19043;SDS011;9654;52.302;8.120;2022-11-20T01:07:25;34.90;;;14.37;;
19043;SDS011;9654;52.302;8.120;2022-11-20T01:09:52;25.20;;;13.53;;
19043;SDS011;9654;52.302;8.120;2022-11-20T01:12:18;30.67;;;13.77;;
19043;SDS011;9654;52.302;8.120;2022-11-20T01:14:45;37.70;;;16.73;;
19043;SDS011;9654;52.302;8.120;2022-11-20T01:17:13;29.47;;;14.60;;
19043;SDS011;9654;52.302;8.120;2022-11-20T01:19:41;29.87;;;13.53;;
19043;SDS011;9654;52.302;8.120;2022-11-20T01:22:09;29.50;;;13.17;;
19043;SDS011;9654;52.302;8.120;2022-11-20T01:24:35;29.30;;;13.30;;
19043;SDS011;9654;52.302;8.120;2022-11-20T01:27:02;29.37;;;12.43;;
19043;SDS011;9654;52.302;8.120;2022-11-20T01:29:29;32.33;;;13.87;;
19043;SDS011;9654;52.302;8.120;2022-11-20T01:31:56;29.30;;;12.97;;
19043;SDS011;9654;52.302;8.120;2022-11-20T01:34:22;27.00;;;12.60;;
19043;SDS011;9654;52.302;8.120;2022-11-20T01:36:51;29.27;;;13.03;;
19043;SDS011;9654;52.302;8.120;2022-11-20T01:39:19;30.07;;;12.90;;
19043;SDS011;9654;52.302;8.120;2022-11-20T01:41:48;27.37;;;12.63;;
19043;SDS011;9654;52.302;8.120;2022-11-20T01:44:45;27.23;;;13.33;;
19043;SDS011;9654;52.302;8.120;2022-11-20T01:47:16;25.40;;;12.63;;
19043;SDS011;9654;52.302;8.120;2022-11-20T01:49:46;33.07;;;12.70;;
19043;SDS011;9654;52.302;8.120;2022-11-20T01:52:20;26.20;;;12.17;;
19043;SDS011;9654;52.302;8.120;2022-11-20T01:54:50;27.03;;;12.63;;
19043;SDS011;9654;52.302;8.120;2022-11-20T01:57:20;28.13;;;12.30;;
19043;SDS011;9654;52.302;8.120;2022-11-20T01:59:54;28.40;;;12.33;;
19043;SDS011;9654;52.302;8.120;2022-11-20T02:02:26;28.67;;;13.10;;
19043;SDS011;9654;52.302;8.120;2022-11-20T02:04:54;28.83;;;12.93;;
19043;SDS011;9654;52.302;8.120;2022-11-20T02:07:28;28.90;;;12.33;;
19043;SDS011;9654;52.302;8.120;2022-11-20T02:09:55;28.90;;;13.40;;
19043;SDS011;9654;52.302;8.120;2022-11-20T02:12:22;30.20;;;13.57;;
19043;SDS011;9654;52.302;8.120;2022-11-20T02:15:06;28.93;;;13.27;;
19043;SDS011;9654;52.302;8.120;2022-11-20T02:17:33;27.87;;;12.03;;
19043;SDS011;9654;52.302;8.120;2022-11-20T02:20:00;26.53;;;12.50;;
19043;SDS011;9654;52.302;8.120;2022-11-20T02:22:30;30.77;;;12.13;;
19043;SDS011;9654;52.302;8.120;2022-11-20T02:25:03;22.10;;;11.30;;
19043;SDS011;9654;52.302;8.120;2022-11-20T02:27:31;26.93;;;12.40;;
19043;SDS011;9654;52.302;8.120;2022-11-20T02:29:59;23.10;;;11.60;;
19043;SDS011;9654;52.302;8.120;2022-11-20T02:32:30;20.23;;;10.77;;
19043;SDS011;9654;52.302;8.120;2022-11-20T02:34:58;30.13;;;11.83;;
19043;SDS011;9654;52.302;8.120;2022-11-20T02:37:33;25.27;;;11.33;;
19043;SDS011;9654;52.302;8.120;2022-11-20T02:40:05;22.87;;;10.87;;
19043;SDS011;9654;52.302;8.120;2022-11-20T02:42:32;26.83;;;11.70;;
19043;SDS011;9654;52.302;8.120;2022-11-20T02:44:59;23.97;;;12.07;;
19043;SDS011;9654;52.302;8.120;2022-11-20T02:47:26;28.47;;;12.27;;
19043;SDS011;9654;52.302;8.120;2022-11-20T02:49:53;24.93;;;12.53;;
19043;SDS011;9654;52.302;8.120;2022-11-20T02:52:19;26.00;;;12.90;;
19043;SDS011;9654;52.302;8.120;2022-11-20T02:54:46;26.47;;;11.60;;
19043;SDS011;9654;52.302;8.120;2022-11-20T02:57:14;24.03;;;11.07;;
19043;SDS011;9654;52.302;8.120;2022-11-20T02:59:41;25.27;;;11.60;;
19043;SDS011;9654;52.302;8.120;2022-11-20T03:02:08;26.53;;;11.47;;
19043;SDS011;9654;52.302;8.120;2022-11-20T03:04:34;22.63;;;11.53;;
19043;SDS011;9654;52.302;8.120;2022-11-20T03:07:01;24.83;;;11.93;;
19043;SDS011;9654;52.302;8.120;2022-11-20T03:09:28;22.37;;;11.20;;
19043;SDS011;9654;52.302;8.120;2022-11-20T03:11:55;29.53;;;11.63;;
19043;SDS011;9654;52.302;8.120;2022-11-20T03:14:23;26.53;;;11.57;;
19043;SDS011;9654;52.302;8.120;2022-11-20T03:16:50;25.47;;;11.63;;
19043;SDS011;9654;52.302;8.120;2022-11-20T03:19:17;24.93;;;11.17;;
19043;SDS011;9654;52.302;8.120;2022-11-20T03:21:44;21.23;;;11.37;;
19043;SDS011;9654;52.302;8.120;2022-11-20T03:24:11;23.00;;;11.00;;
19043;SDS011;9654;52.302;8.120;2022-11-20T03:26:38;26.23;;;11.13;;
19043;SDS011;9654;52.302;8.120;2022-11-20T03:29:05;26.27;;;12.23;;
19043;SDS011;9654;52.302;8.120;2022-11-20T03:31:34;22.23;;;10.97;;
19043;SDS011;9654;52.302;8.120;2022-11-20T03:34:02;26.67;;;12.77;;
19043;SDS011;9654;52.302;8.120;2022-11-20T03:36:30;26.87;;;11.73;;
19043;SDS011;9654;52.302;8.120;2022-11-20T03:38:57;24.67;;;11.50;;
19043;SDS011;9654;52.302;8.120;2022-11-20T03:41:25;23.37;;;10.70;;
19043;SDS011;9654;52.302;8.120;2022-11-20T03:43:54;26.37;;;11.63;;
19043;SDS011;9654;52.302;8.120;2022-11-20T03:46:22;25.37;;;11.20;;
19043;SDS011;9654;52.302;8.120;2022-11-20T03:48:51;24.10;;;9.77;;
19043;SDS011;9654;52.302;8.120;2022-11-20T03:51:19;22.57;;;11.27;;
19043;SDS011;9654;52.302;8.120;2022-11-20T03:53:48;24.43;;;11.43;;
19043;SDS011;9654;52.302;8.120;2022-11-20T03:56:16;22.90;;;10.53;;
19043;SDS011;9654;52.302;8.120;2022-11-20T03:58:44;22.90;;;11.43;;
19043;SDS011;9654;52.302;8.120;2022-11-20T04:01:12;26.10;;;11.80;;
19043;SDS011;9654;52.302;8.120;2022-11-20T04:03:41;22.40;;;10.67;;
19043;SDS011;9654;52.302;8.120;2022-11-20T04:06:11;19.83;;;10.17;;
19043;SDS011;9654;52.302;8.120;2022-11-20T04:08:39;24.40;;;10.73;;
19043;SDS011;9654;52.302;8.120;2022-11-20T04:11:10;21.07;;;9.70;;
19043;SDS011;9654;52.302;8.120;2022-11-20T04:13:38;20.70;;;10.27;;
19043;SDS011;9654;52.302;8.120;2022-11-20T04:16:06;24.23;;;10.83;;
19043;SDS011;9654;52.302;8.120;2022-11-20T04:18:33;22.50;;;10.77;;
19043;SDS011;9654;52.302;8.120;2022-11-20T04:21:01;23.73;;;10.87;;
19043;SDS011;9654;52.302;8.120;2022-11-20T04:23:29;24.13;;;11.00;;
19043;SDS011;9654;52.302;8.120;2022-11-20T04:26:00;21.97;;;10.87;;
19043;SDS011;9654;52.302;8.120;2022-11-20T04:28:28;22.93;;;10.40;;
19043;SDS011;9654;52.302;8.120;2022-11-20T04:30:54;26.73;;;11.83;;
19043;SDS011;9654;52.302;8.120;2022-11-20T04:33:28;22.53;;;10.77;;
19043;SDS011;9654;52.302;8.120;2022-11-20T04:35:55;22.60;;;9.97;;
19043;SDS011;9654;52.302;8.120;2022-11-20T04:38:26;25.37;;;10.90;;
19043;SDS011;9654;52.302;8.120;2022-11-20T04:40:56;25.77;;;11.47;;
19043;SDS011;9654;52.302;8.120;2022-11-20T04:43:24;21.83;;;10.07;;
19043;SDS011;9654;52.302;8.120;2022-11-20T04:45:51;24.50;;;10.83;;
19043;SDS011;9654;52.302;8.120;2022-11-20T04:48:18;23.57;;;10.63;;
19043;SDS011;9654;52.302;8.120;2022-11-20T04:50:45;17.73;;;9.40;;
19043;SDS011;9654;52.302;8.120;2022-11-20T04:53:12;26.77;;;10.67;;
19043;SDS011;9654;52.302;8.120;2022-11-20T04:55:38;21.97;;;10.80;;
19043;SDS011;9654;52.302;8.120;2022-11-20T04:58:07;24.93;;;11.10;;
19043;SDS011;9654;52.302;8.120;2022-11-20T05:00:33;25.13;;;11.77;;
19043;SDS011;9654;52.302;8.120;2022-11-20T05:03:00;25.57;;;10.90;;
19043;SDS011;9654;52.302;8.120;2022-11-20T05:05:27;24.47;;;10.77;;
19043;SDS011;9654;52.302;8.120;2022-11-20T05:07:55;21.30;;;10.90;;
19043;SDS011;9654;52.302;8.120;2022-11-20T05:10:22;26.50;;;11.40;;
19043;SDS011;9654;52.302;8.120;2022-11-20T05:12:49;24.73;;;11.57;;
19043;SDS011;9654;52.302;8.120;2022-11-20T05:15:17;26.50;;;11.00;;
19043;SDS011;9654;52.302;8.120;2022-11-20T05:17:46;24.80;;;11.40;;
19043;SDS011;9654;52.302;8.120;2022-11-20T05:20:13;21.37;;;10.33;;
19043;SDS011;9654;52.302;8.120;2022-11-20T05:22:40;23.67;;;10.60;;
19043;SDS011;9654;52.302;8.120;2022-11-20T05:25:07;21.77;;;10.00;;
19043;SDS011;9654;52.302;8.120;2022-11-20T05:27:34;21.10;;;10.37;;
19043;SDS011;9654;52.302;8.120;2022-11-20T05:30:01;23.47;;;11.40;;
19043;SDS011;9654;52.302;8.120;2022-11-20T05:32:29;24.20;;;11.63;;
19043;SDS011;9654;52.302;8.120;2022-11-20T05:34:55;23.70;;;11.83;;
19043;SDS011;9654;52.302;8.120;2022-11-20T05:37:22;26.30;;;11.93;;
19043;SDS011;9654;52.302;8.120;2022-11-20T05:39:49;26.83;;;11.87;;
19043;SDS011;9654;52.302;8.120;2022-11-20T05:42:16;24.40;;;11.40;;
19043;SDS011;9654;52.302;8.120;2022-11-20T05:44:58;24.27;;;10.63;;
19043;SDS011;9654;52.302;8.120;2022-11-20T05:47:25;23.30;;;11.30;;
19043;SDS011;9654;52.302;8.120;2022-11-20T05:49:54;22.77;;;11.47;;
19043;SDS011;9654;52.302;8.120;2022-11-20T05:52:20;26.67;;;11.80;;
19043;SDS011;9654;52.302;8.120;2022-11-20T05:54:47;23.47;;;10.93;;
19043;SDS011;9654;52.302;8.120;2022-11-20T05:57:15;23.23;;;10.73;;
19043;SDS011;9654;52.302;8.120;2022-11-20T05:59:42;23.10;;;10.63;;
19043;SDS011;9654;52.302;8.120;2022-11-20T06:02:09;24.67;;;10.40;;
19043;SDS011;9654;52.302;8.120;2022-11-20T06:04:36;20.23;;;10.80;;
19043;SDS011;9654;52.302;8.120;2022-11-20T06:07:05;23.80;;;11.03;;
19043;SDS011;9654;52.302;8.120;2022-11-20T06:09:33;22.43;;;11.63;;
19043;SDS011;9654;52.302;8.120;2022-11-20T06:12:00;27.57;;;11.93;;
19043;SDS011;9654;52.302;8.120;2022-11-20T06:14:27;22.80;;;11.10;;
19043;SDS011;9654;52.302;8.120;2022-11-20T06:16:53;24.37;;;11.13;;
19043;SDS011;9654;52.302;8.120;2022-11-20T06:19:20;22.17;;;10.90;;
19043;SDS011;9654;52.302;8.120;2022-11-20T06:21:47;22.40;;;11.37;;
19043;SDS011;9654;52.302;8.120;2022-11-20T06:24:16;21.60;;;10.53;;
19043;SDS011;9654;52.302;8.120;2022-11-20T06:26:43;25.73;;;11.37;;
19043;SDS011;9654;52.302;8.120;2022-11-20T06:29:10;24.93;;;12.57;;
19043;SDS011;9654;52.302;8.120;2022-11-20T06:31:37;27.07;;;12.83;;
19043;SDS011;9654;52.302;8.120;2022-11-20T06:34:04;24.90;;;12.93;;
19043;SDS011;9654;52.302;8.120;2022-11-20T06:36:31;27.53;;;12.97;;
19043;SDS011;9654;52.302;8.120;2022-11-20T06:38:58;26.97;;;13.33;;
19043;SDS011;9654;52.302;8.120;2022-11-20T06:41:26;29.43;;;12.80;;
19043;SDS011;9654;52.302;8.120;2022-11-20T06:43:53;26.37;;;13.40;;
19043;SDS011;9654;52.302;8.120;2022-11-20T06:46:20;27.10;;;12.63;;
19043;SDS011;9654;52.302;8.120;2022-11-20T06:48:48;25.30;;;13.40;;
19043;SDS011;9654;52.302;8.120;2022-11-20T06:51:15;31.50;;;14.23;;
19043;SDS011;9654;52.302;8.120;2022-11-20T06:53:42;30.77;;;14.67;;
19043;SDS011;9654;52.302;8.120;2022-11-20T06:56:09;30.57;;;14.23;;
19043;SDS011;9654;52.302;8.120;2022-11-20T06:58:37;30.60;;;14.53;;
19043;SDS011;9654;52.302;8.120;2022-11-20T07:01:05;26.63;;;14.40;;
19043;SDS011;9654;52.302;8.120;2022-11-20T07:03:33;26.03;;;13.70;;
19043;SDS011;9654;52.302;8.120;2022-11-20T07:06:01;48.17;;;25.20;;
19043;SDS011;9654;52.302;8.120;2022-11-20T07:08:28;35.37;;;17.57;;
19043;SDS011;9654;52.302;8.120;2022-11-20T07:10:56;32.73;;;17.00;;
19043;SDS011;9654;52.302;8.120;2022-11-20T07:13:24;32.90;;;16.70;;
19043;SDS011;9654;52.302;8.120;2022-11-20T07:15:52;38.60;;;16.60;;
19043;SDS011;9654;52.302;8.120;2022-11-20T07:18:19;50.77;;;25.37;;
19043;SDS011;9654;52.302;8.120;2022-11-20T07:20:46;32.80;;;16.70;;
19043;SDS011;9654;52.302;8.120;2022-11-20T07:23:12;29.70;;;16.17;;
19043;SDS011;9654;52.302;8.120;2022-11-20T07:25:39;37.70;;;20.00;;
19043;SDS011;9654;52.302;8.120;2022-11-20T07:28:06;33.33;;;17.20;;
19043;SDS011;9654;52.302;8.120;2022-11-20T07:30:33;29.80;;;16.57;;
19043;SDS011;9654;52.302;8.120;2022-11-20T07:33:01;31.90;;;16.67;;
19043;SDS011;9654;52.302;8.120;2022-11-20T07:35:28;30.47;;;16.73;;
19043;SDS011;9654;52.302;8.120;2022-11-20T07:37:54;32.70;;;17.27;;
19043;SDS011;9654;52.302;8.120;2022-11-20T07:40:21;29.57;;;16.57;;
19043;SDS011;9654;52.302;8.120;2022-11-20T07:42:48;34.60;;;17.13;;
19043;SDS011;9654;52.302;8.120;2022-11-20T07:45:15;29.13;;;15.80;;
19043;SDS011;9654;52.302;8.120;2022-11-20T07:47:42;30.70;;;16.23;;
19043;SDS011;9654;52.302;8.120;2022-11-20T07:50:10;30.00;;;15.87;;
19043;SDS011;9654;52.302;8.120;2022-11-20T07:52:37;31.30;;;15.80;;
19043;SDS011;9654;52.302;8.120;2022-11-20T07:55:06;31.23;;;16.80;;
19043;SDS011;9654;52.302;8.120;2022-11-20T07:57:33;29.77;;;15.47;;
19043;SDS011;9654;52.302;8.120;2022-11-20T08:00:00;37.40;;;19.03;;
19043;SDS011;9654;52.302;8.120;2022-11-20T08:02:27;30.47;;;15.37;;
19043;SDS011;9654;52.302;8.120;2022-11-20T08:04:54;26.97;;;15.57;;
19043;SDS011;9654;52.302;8.120;2022-11-20T08:07:22;28.83;;;14.90;;
19043;SDS011;9654;52.302;8.120;2022-11-20T08:09:48;29.53;;;16.97;;
19043;SDS011;9654;52.302;8.120;2022-11-20T08:12:16;26.10;;;12.77;;
19043;SDS011;9654;52.302;8.120;2022-11-20T08:15:02;28.70;;;13.00;;
19043;SDS011;9654;52.302;8.120;2022-11-20T08:17:29;31.30;;;18.17;;
19043;SDS011;9654;52.302;8.120;2022-11-20T08:19:56;27.43;;;14.50;;
19043;SDS011;9654;52.302;8.120;2022-11-20T08:22:24;25.87;;;13.47;;
19043;SDS011;9654;52.302;8.120;2022-11-20T08:24:51;23.33;;;11.90;;
19043;SDS011;9654;52.302;8.120;2022-11-20T08:27:18;26.80;;;14.17;;
19043;SDS011;9654;52.302;8.120;2022-11-20T08:29:45;26.57;;;14.00;;
19043;SDS011;9654;52.302;8.120;2022-11-20T08:32:11;26.03;;;13.73;;
19043;SDS011;9654;52.302;8.120;2022-11-20T08:34:38;28.13;;;13.67;;
19043;SDS011;9654;52.302;8.120;2022-11-20T08:37:05;26.13;;;13.60;;
19043;SDS011;9654;52.302;8.120;2022-11-20T08:39:33;91.83;;;32.23;;
19043;SDS011;9654;52.302;8.120;2022-11-20T08:42:00;43.87;;;20.67;;
19043;SDS011;9654;52.302;8.120;2022-11-20T08:44:26;34.27;;;17.03;;
19043;SDS011;9654;52.302;8.120;2022-11-20T08:46:53;37.83;;;16.63;;
19043;SDS011;9654;52.302;8.120;2022-11-20T08:49:20;31.87;;;16.13;;
19043;SDS011;9654;52.302;8.120;2022-11-20T08:51:47;26.47;;;14.83;;
19043;SDS011;9654;52.302;8.120;2022-11-20T08:54:17;27.20;;;13.60;;
19043;SDS011;9654;52.302;8.120;2022-11-20T08:56:46;31.33;;;16.07;;
19043;SDS011;9654;52.302;8.120;2022-11-20T08:59:12;24.43;;;12.87;;
19043;SDS011;9654;52.302;8.120;2022-11-20T09:01:39;24.17;;;12.83;;
19043;SDS011;9654;52.302;8.120;2022-11-20T09:04:06;22.20;;;12.93;;
19043;SDS011;9654;52.302;8.120;2022-11-20T09:06:33;24.63;;;13.20;;
19043;SDS011;9654;52.302;8.120;2022-11-20T09:09:00;25.43;;;13.73;;
19043;SDS011;9654;52.302;8.120;2022-11-20T09:11:26;23.30;;;12.90;;
19043;SDS011;9654;52.302;8.120;2022-11-20T09:13:54;29.63;;;14.23;;
19043;SDS011;9654;52.302;8.120;2022-11-20T09:16:21;23.83;;;13.13;;
19043;SDS011;9654;52.302;8.120;2022-11-20T09:18:49;30.37;;;14.33;;
19043;SDS011;9654;52.302;8.120;2022-11-20T09:21:16;24.43;;;13.53;;
19043;SDS011;9654;52.302;8.120;2022-11-20T09:23:43;23.60;;;12.80;;
19043;SDS011;9654;52.302;8.120;2022-11-20T09:26:11;23.50;;;12.77;;
19043;SDS011;9654;52.302;8.120;2022-11-20T09:28:39;22.97;;;13.17;;
19043;SDS011;9654;52.302;8.120;2022-11-20T09:31:07;23.40;;;14.13;;
19043;SDS011;9654;52.302;8.120;2022-11-20T09:33:35;27.97;;;16.53;;
19043;SDS011;9654;52.302;8.120;2022-11-20T09:36:02;30.33;;;17.70;;
19043;SDS011;9654;52.302;8.120;2022-11-20T09:38:29;26.37;;;13.67;;
19043;SDS011;9654;52.302;8.120;2022-11-20T09:40:56;27.13;;;13.77;;
19043;SDS011;9654;52.302;8.120;2022-11-20T09:43:27;23.27;;;13.30;;
19043;SDS011;9654;52.302;8.120;2022-11-20T09:46:05;21.50;;;12.10;;
19043;SDS011;9654;52.302;8.120;2022-11-20T09:48:54;32.13;;;13.63;;
19043;SDS011;9654;52.302;8.120;2022-11-20T09:51:38;22.17;;;12.93;;
19043;SDS011;9654;52.302;8.120;2022-11-20T09:54:13;27.10;;;14.03;;
19043;SDS011;9654;52.302;8.120;2022-11-20T09:56:44;26.90;;;15.10;;
19043;SDS011;9654;52.302;8.120;2022-11-20T09:59:20;25.00;;;13.70;;
19043;SDS011;9654;52.302;8.120;2022-11-20T10:01:56;30.63;;;14.13;;
19043;SDS011;9654;52.302;8.120;2022-11-20T10:04:25;32.30;;;15.13;;
19043;SDS011;9654;52.302;8.120;2022-11-20T10:06:53;25.80;;;13.87;;
19043;SDS011;9654;52.302;8.120;2022-11-20T10:09:28;29.20;;;13.40;;
19043;SDS011;9654;52.302;8.120;2022-11-20T10:12:01;34.53;;;14.47;;
19043;SDS011;9654;52.302;8.120;2022-11-20T10:14:38;30.87;;;13.27;;
19043;SDS011;9654;52.302;8.120;2022-11-20T10:17:16;23.43;;;13.30;;
19043;SDS011;9654;52.302;8.120;2022-11-20T10:19:55;30.87;;;13.70;;
19043;SDS011;9654;52.302;8.120;2022-11-20T10:22:38;29.03;;;13.77;;
19043;SDS011;9654;52.302;8.120;2022-11-20T10:25:14;23.97;;;12.90;;
19043;SDS011;9654;52.302;8.120;2022-11-20T10:27:49;38.20;;;14.27;;
19043;SDS011;9654;52.302;8.120;2022-11-20T10:30:28;33.57;;;15.40;;
19043;SDS011;9654;52.302;8.120;2022-11-20T10:32:59;27.93;;;14.73;;
19043;SDS011;9654;52.302;8.120;2022-11-20T10:35:32;26.87;;;13.83;;
19043;SDS011;9654;52.302;8.120;2022-11-20T10:38:02;36.77;;;16.03;;
19043;SDS011;9654;52.302;8.120;2022-11-20T10:40:34;34.13;;;15.63;;
19043;SDS011;9654;52.302;8.120;2022-11-20T10:43:06;30.93;;;15.17;;
19043;SDS011;9654;52.302;8.120;2022-11-20T10:45:40;26.77;;;12.83;;
19043;SDS011;9654;52.302;8.120;2022-11-20T10:48:16;38.67;;;15.83;;
19043;SDS011;9654;52.302;8.120;2022-11-20T10:50:49;31.87;;;15.20;;
19043;SDS011;9654;52.302;8.120;2022-11-20T10:53:28;33.07;;;13.67;;
19043;SDS011;9654;52.302;8.120;2022-11-20T10:56:04;30.47;;;13.90;;
19043;SDS011;9654;52.302;8.120;2022-11-20T10:58:35;28.90;;;14.23;;
19043;SDS011;9654;52.302;8.120;2022-11-20T11:01:13;31.90;;;13.57;;
19043;SDS011;9654;52.302;8.120;2022-11-20T11:03:43;26.17;;;12.80;;
19043;SDS011;9654;52.302;8.120;2022-11-20T11:06:12;32.73;;;15.43;;
19043;SDS011;9654;52.302;8.120;2022-11-20T11:08:45;33.43;;;16.40;;
19043;SDS011;9654;52.302;8.120;2022-11-20T11:11:18;28.77;;;15.43;;
19043;SDS011;9654;52.302;8.120;2022-11-20T11:13:48;41.57;;;17.93;;
19043;SDS011;9654;52.302;8.120;2022-11-20T11:16:17;28.23;;;15.60;;
19043;SDS011;9654;52.302;8.120;2022-11-20T11:18:48;34.37;;;15.10;;
19043;SDS011;9654;52.302;8.120;2022-11-20T11:21:19;32.03;;;14.63;;
19043;SDS011;9654;52.302;8.120;2022-11-20T11:23:56;32.60;;;16.40;;
19043;SDS011;9654;52.302;8.120;2022-11-20T11:26:24;39.33;;;16.00;;
19043;SDS011;9654;52.302;8.120;2022-11-20T11:28:55;32.97;;;16.10;;
19043;SDS011;9654;52.302;8.120;2022-11-20T11:31:23;35.03;;;15.83;;
19043;SDS011;9654;52.302;8.120;2022-11-20T11:34:03;35.33;;;15.87;;
19043;SDS011;9654;52.302;8.120;2022-11-20T11:36:30;31.30;;;15.37;;
19043;SDS011;9654;52.302;8.120;2022-11-20T11:39:00;32.77;;;14.87;;
19043;SDS011;9654;52.302;8.120;2022-11-20T11:41:30;33.03;;;14.07;;
19043;SDS011;9654;52.302;8.120;2022-11-20T11:44:01;29.53;;;14.30;;
19043;SDS011;9654;52.302;8.120;2022-11-20T11:46:59;28.00;;;14.33;;
19043;SDS011;9654;52.302;8.120;2022-11-20T11:49:27;35.47;;;15.80;;
19043;SDS011;9654;52.302;8.120;2022-11-20T11:52:02;33.37;;;15.73;;
19043;SDS011;9654;52.302;8.120;2022-11-20T11:54:35;26.63;;;13.40;;
19043;SDS011;9654;52.302;8.120;2022-11-20T11:57:05;29.73;;;14.10;;
19043;SDS011;9654;52.302;8.120;2022-11-20T11:59:41;32.30;;;15.17;;
19043;SDS011;9654;52.302;8.120;2022-11-20T12:02:22;31.43;;;15.90;;
19043;SDS011;9654;52.302;8.120;2022-11-20T12:04:58;32.67;;;15.40;;
19043;SDS011;9654;52.302;8.120;2022-11-20T12:07:32;34.00;;;15.77;;
19043;SDS011;9654;52.302;8.120;2022-11-20T12:10:07;38.50;;;16.90;;
19043;SDS011;9654;52.302;8.120;2022-11-20T12:12:43;32.73;;;15.97;;
19043;SDS011;9654;52.302;8.120;2022-11-20T12:15:14;33.93;;;15.80;;
19043;SDS011;9654;52.302;8.120;2022-11-20T12:17:48;32.37;;;15.93;;
19043;SDS011;9654;52.302;8.120;2022-11-20T12:20:16;33.57;;;15.43;;
19043;SDS011;9654;52.302;8.120;2022-11-20T12:22:44;35.23;;;16.70;;
19043;SDS011;9654;52.302;8.120;2022-11-20T12:25:20;35.50;;;15.73;;
19043;SDS011;9654;52.302;8.120;2022-11-20T12:30:58;38.43;;;16.13;;
19043;SDS011;9654;52.302;8.120;2022-11-20T12:33:43;36.57;;;16.90;;
19043;SDS011;9654;52.302;8.120;2022-11-20T12:36:25;35.83;;;15.93;;
19043;SDS011;9654;52.302;8.120;2022-11-20T12:38:59;52.70;;;18.77;;
19043;SDS011;9654;52.302;8.120;2022-11-20T12:41:51;80.63;;;22.47;;
19043;SDS011;9654;52.302;8.120;2022-11-20T12:44:52;40.70;;;16.60;;
19043;SDS011;9654;52.302;8.120;2022-11-20T12:47:38;82.30;;;23.33;;
19043;SDS011;9654;52.302;8.120;2022-11-20T12:50:17;48.70;;;18.70;;
19043;SDS011;9654;52.302;8.120;2022-11-20T12:52:56;75.90;;;21.83;;
19043;SDS011;9654;52.302;8.120;2022-11-20T12:55:28;40.70;;;17.17;;
19043;SDS011;9654;52.302;8.120;2022-11-20T12:58:04;58.33;;;21.30;;
19043;SDS011;9654;52.302;8.120;2022-11-20T13:00:37;57.40;;;20.07;;
19043;SDS011;9654;52.302;8.120;2022-11-20T13:03:24;64.13;;;22.33;;
19043;SDS011;9654;52.302;8.120;2022-11-20T13:06:02;64.77;;;21.47;;
19043;SDS011;9654;52.302;8.120;2022-11-20T13:08:38;54.73;;;22.57;;
19043;SDS011;9654;52.302;8.120;2022-11-20T13:11:08;53.77;;;21.00;;
19043;SDS011;9654;52.302;8.120;2022-11-20T13:13:43;70.43;;;23.43;;
19043;SDS011;9654;52.302;8.120;2022-11-20T13:16:22;37.03;;;16.70;;
19043;SDS011;9654;52.302;8.120;2022-11-20T13:18:54;39.03;;;16.90;;
19043;SDS011;9654;52.302;8.120;2022-11-20T13:21:21;46.90;;;18.40;;
19043;SDS011;9654;52.302;8.120;2022-11-20T13:24:05;48.90;;;18.83;;
19043;SDS011;9654;52.302;8.120;2022-11-20T13:26:31;41.03;;;17.13;;
19043;SDS011;9654;52.302;8.120;2022-11-20T13:28:59;43.50;;;17.50;;
19043;SDS011;9654;52.302;8.120;2022-11-20T13:31:35;38.20;;;16.97;;
19043;SDS011;9654;52.302;8.120;2022-11-20T13:34:05;36.83;;;17.03;;
19043;SDS011;9654;52.302;8.120;2022-11-20T13:36:33;32.17;;;16.07;;
19043;SDS011;9654;52.302;8.120;2022-11-20T13:39:01;35.50;;;15.40;;
19043;SDS011;9654;52.302;8.120;2022-11-20T13:41:30;28.03;;;14.43;;
19043;SDS011;9654;52.302;8.120;2022-11-20T13:44:05;37.27;;;15.10;;
19043;SDS011;9654;52.302;8.120;2022-11-20T13:46:37;30.77;;;14.10;;
19043;SDS011;9654;52.302;8.120;2022-11-20T13:49:09;27.87;;;15.33;;
19043;SDS011;9654;52.302;8.120;2022-11-20T13:51:43;28.13;;;15.63;;
19043;SDS011;9654;52.302;8.120;2022-11-20T13:57:14;29.53;;;15.20;;
19043;SDS011;9654;52.302;8.120;2022-11-20T13:59:53;29.37;;;14.33;;
19043;SDS011;9654;52.302;8.120;2022-11-20T14:02:25;42.33;;;18.90;;
19043;SDS011;9654;52.302;8.120;2022-11-20T14:04:54;30.77;;;15.80;;
19043;SDS011;9654;52.302;8.120;2022-11-20T14:07:25;30.73;;;15.13;;
19043;SDS011;9654;52.302;8.120;2022-11-20T14:10:00;27.67;;;14.20;;
19043;SDS011;9654;52.302;8.120;2022-11-20T14:12:29;26.13;;;15.03;;
19043;SDS011;9654;52.302;8.120;2022-11-20T14:14:57;30.70;;;14.57;;
19043;SDS011;9654;52.302;8.120;2022-11-20T14:17:29;27.67;;;14.07;;
19043;SDS011;9654;52.302;8.120;2022-11-20T14:19:59;22.97;;;13.43;;
19043;SDS011;9654;52.302;8.120;2022-11-20T14:22:29;23.60;;;13.13;;
19043;SDS011;9654;52.302;8.120;2022-11-20T14:25:01;22.50;;;13.43;;
19043;SDS011;9654;52.302;8.120;2022-11-20T14:27:32;26.83;;;14.83;;
19043;SDS011;9654;52.302;8.120;2022-11-20T14:30:00;29.30;;;15.13;;
19043;SDS011;9654;52.302;8.120;2022-11-20T14:32:28;24.67;;;13.80;;
19043;SDS011;9654;52.302;8.120;2022-11-20T14:34:57;23.50;;;13.73;;
19043;SDS011;9654;52.302;8.120;2022-11-20T14:37:29;29.13;;;14.77;;
19043;SDS011;9654;52.302;8.120;2022-11-20T14:40:02;29.30;;;15.73;;
19043;SDS011;9654;52.302;8.120;2022-11-20T14:42:32;26.63;;;14.53;;
19043;SDS011;9654;52.302;8.120;2022-11-20T14:45:01;25.97;;;14.40;;
19043;SDS011;9654;52.302;8.120;2022-11-20T14:47:29;27.23;;;15.07;;
19043;SDS011;9654;52.302;8.120;2022-11-20T14:49:57;26.80;;;14.53;;
19043;SDS011;9654;52.302;8.120;2022-11-20T14:52:27;28.00;;;14.87;;
19043;SDS011;9654;52.302;8.120;2022-11-20T14:54:56;30.63;;;15.60;;
19043;SDS011;9654;52.302;8.120;2022-11-20T14:57:25;27.70;;;14.40;;